sensor_id;sensor_type;location;lat;lon;timestamp;P1;durP1;ratioP1;P2;durP2;ratioP2
20639;SDS011;10479;53.524;9.846;2024-01-15T00:02:11;14.05;;;1.65;;
20639;SDS011;10479;53.524;9.846;2024-01-15T00:04:40;9.27;;;1.38;;
20639;SDS011;10479;53.524;9.846;2024-01-15T00:07:09;12.40;;;1.63;;
20639;SDS011;10479;53.524;9.846;2024-01-15T00:09:35;17.42;;;1.42;;
20639;SDS011;10479;53.524;9.846;2024-01-15T00:12:00;14.07;;;2.08;;
20639;SDS011;10479;53.524;9.846;2024-01-15T00:14:26;11.07;;;1.40;;
20639;SDS011;10479;53.524;9.846;2024-01-15T00:16:52;9.98;;;1.50;;
20639;SDS011;10479;53.524;9.846;2024-01-15T00:19:20;13.07;;;1.90;;
20639;SDS011;10479;53.524;9.846;2024-01-15T00:21:46;22.23;;;2.05;;
20639;SDS011;10479;53.524;9.846;2024-01-15T00:24:11;10.82;;;1.25;;
20639;SDS011;10479;53.524;9.846;2024-01-15T00:26:37;17.08;;;1.73;;
20639;SDS011;10479;53.524;9.846;2024-01-15T00:29:03;11.82;;;1.75;;
20639;SDS011;10479;53.524;9.846;2024-01-15T00:31:29;13.23;;;1.48;;
20639;SDS011;10479;53.524;9.846;2024-01-15T00:33:55;12.15;;;2.05;;
20639;SDS011;10479;53.524;9.846;2024-01-15T00:36:21;14.68;;;1.58;;
20639;SDS011;10479;53.524;9.846;2024-01-15T00:38:46;16.88;;;1.60;;
20639;SDS011;10479;53.524;9.846;2024-01-15T00:41:12;14.57;;;1.90;;
20639;SDS011;10479;53.524;9.846;2024-01-15T00:43:38;10.38;;;1.48;;
20639;SDS011;10479;53.524;9.846;2024-01-15T00:46:04;13.55;;;1.73;;
20639;SDS011;10479;53.524;9.846;2024-01-15T00:48:30;14.90;;;2.05;;
20639;SDS011;10479;53.524;9.846;2024-01-15T00:50:55;18.33;;;2.47;;
20639;SDS011;10479;53.524;9.846;2024-01-15T00:53:21;14.23;;;1.83;;
20639;SDS011;10479;53.524;9.846;2024-01-15T00:55:47;13.07;;;1.75;;
20639;SDS011;10479;53.524;9.846;2024-01-15T00:58:15;9.68;;;1.50;;
20639;SDS011;10479;53.524;9.846;2024-01-15T01:00:41;15.35;;;1.58;;
20639;SDS011;10479;53.524;9.846;2024-01-15T01:03:07;15.10;;;1.50;;
20639;SDS011;10479;53.524;9.846;2024-01-15T01:05:33;16.80;;;1.73;;
20639;SDS011;10479;53.524;9.846;2024-01-15T01:07:59;10.07;;;1.58;;
20639;SDS011;10479;53.524;9.846;2024-01-15T01:10:24;16.23;;;2.00;;
20639;SDS011;10479;53.524;9.846;2024-01-15T01:12:50;12.45;;;2.08;;
20639;SDS011;10479;53.524;9.846;2024-01-15T01:15:15;15.27;;;1.98;;
20639;SDS011;10479;53.524;9.846;2024-01-15T01:17:40;9.30;;;1.13;;
20639;SDS011;10479;53.524;9.846;2024-01-15T01:20:06;13.15;;;2.00;;
20639;SDS011;10479;53.524;9.846;2024-01-15T01:22:34;9.20;;;1.40;;
20639;SDS011;10479;53.524;9.846;2024-01-15T01:24:59;14.13;;;1.55;;
20639;SDS011;10479;53.524;9.846;2024-01-15T01:27:25;10.73;;;1.38;;
20639;SDS011;10479;53.524;9.846;2024-01-15T01:29:50;14.13;;;1.88;;
20639;SDS011;10479;53.524;9.846;2024-01-15T01:32:17;10.63;;;1.70;;
20639;SDS011;10479;53.524;9.846;2024-01-15T01:34:42;6.00;;;1.00;;
20639;SDS011;10479;53.524;9.846;2024-01-15T01:37:08;11.63;;;1.40;;
20639;SDS011;10479;53.524;9.846;2024-01-15T01:39:34;15.30;;;1.55;;
20639;SDS011;10479;53.524;9.846;2024-01-15T01:42:00;17.30;;;1.98;;
20639;SDS011;10479;53.524;9.846;2024-01-15T01:44:25;17.75;;;2.08;;
20639;SDS011;10479;53.524;9.846;2024-01-15T01:46:51;22.88;;;1.98;;
20639;SDS011;10479;53.524;9.846;2024-01-15T01:49:16;18.17;;;1.50;;
20639;SDS011;10479;53.524;9.846;2024-01-15T01:51:42;10.02;;;1.17;;
20639;SDS011;10479;53.524;9.846;2024-01-15T01:54:08;12.48;;;1.52;;
20639;SDS011;10479;53.524;9.846;2024-01-15T01:56:34;14.05;;;1.30;;
20639;SDS011;10479;53.524;9.846;2024-01-15T01:59:01;15.57;;;1.60;;
20639;SDS011;10479;53.524;9.846;2024-01-15T02:01:26;12.90;;;1.60;;
20639;SDS011;10479;53.524;9.846;2024-01-15T02:03:52;11.15;;;1.38;;
20639;SDS011;10479;53.524;9.846;2024-01-15T02:06:18;6.95;;;1.10;;
20639;SDS011;10479;53.524;9.846;2024-01-15T02:08:43;9.63;;;1.38;;
20639;SDS011;10479;53.524;9.846;2024-01-15T02:11:09;12.18;;;1.40;;
20639;SDS011;10479;53.524;9.846;2024-01-15T02:13:35;10.40;;;1.15;;
20639;SDS011;10479;53.524;9.846;2024-01-15T02:16:00;7.60;;;0.70;;
20639;SDS011;10479;53.524;9.846;2024-01-15T02:18:26;10.88;;;1.77;;
20639;SDS011;10479;53.524;9.846;2024-01-15T02:20:51;8.38;;;1.55;;
20639;SDS011;10479;53.524;9.846;2024-01-15T02:23:17;10.05;;;1.48;;
20639;SDS011;10479;53.524;9.846;2024-01-15T02:25:43;15.90;;;2.08;;
20639;SDS011;10479;53.524;9.846;2024-01-15T02:28:13;17.98;;;1.88;;
20639;SDS011;10479;53.524;9.846;2024-01-15T02:30:41;10.90;;;2.45;;
20639;SDS011;10479;53.524;9.846;2024-01-15T02:33:07;16.67;;;2.67;;
20639;SDS011;10479;53.524;9.846;2024-01-15T02:35:33;9.52;;;1.42;;
20639;SDS011;10479;53.524;9.846;2024-01-15T02:37:59;12.18;;;1.27;;
20639;SDS011;10479;53.524;9.846;2024-01-15T02:40:24;8.93;;;1.27;;
20639;SDS011;10479;53.524;9.846;2024-01-15T02:42:50;13.35;;;1.45;;
20639;SDS011;10479;53.524;9.846;2024-01-15T02:45:16;6.88;;;1.10;;
20639;SDS011;10479;53.524;9.846;2024-01-15T02:47:42;6.28;;;0.98;;
20639;SDS011;10479;53.524;9.846;2024-01-15T02:50:07;11.60;;;0.95;;
20639;SDS011;10479;53.524;9.846;2024-01-15T02:52:32;9.57;;;1.17;;
20639;SDS011;10479;53.524;9.846;2024-01-15T02:54:58;14.00;;;1.50;;
20639;SDS011;10479;53.524;9.846;2024-01-15T02:57:23;9.60;;;2.03;;
20639;SDS011;10479;53.524;9.846;2024-01-15T02:59:49;7.70;;;1.02;;
20639;SDS011;10479;53.524;9.846;2024-01-15T03:02:14;10.55;;;1.10;;
20639;SDS011;10479;53.524;9.846;2024-01-15T03:04:43;19.10;;;1.35;;
20639;SDS011;10479;53.524;9.846;2024-01-15T03:07:09;14.65;;;1.55;;
20639;SDS011;10479;53.524;9.846;2024-01-15T03:09:34;13.27;;;1.45;;
20639;SDS011;10479;53.524;9.846;2024-01-15T03:12:00;9.38;;;1.73;;
20639;SDS011;10479;53.524;9.846;2024-01-15T03:14:25;11.00;;;1.10;;
20639;SDS011;10479;53.524;9.846;2024-01-15T03:16:51;8.98;;;1.38;;
20639;SDS011;10479;53.524;9.846;2024-01-15T03:19:17;12.40;;;1.65;;
20639;SDS011;10479;53.524;9.846;2024-01-15T03:21:42;10.65;;;1.13;;
20639;SDS011;10479;53.524;9.846;2024-01-15T03:24:08;12.57;;;1.20;;
20639;SDS011;10479;53.524;9.846;2024-01-15T03:26:33;11.98;;;1.80;;
20639;SDS011;10479;53.524;9.846;2024-01-15T03:28:59;15.38;;;1.85;;
20639;SDS011;10479;53.524;9.846;2024-01-15T03:31:24;17.58;;;1.80;;
20639;SDS011;10479;53.524;9.846;2024-01-15T03:33:49;17.88;;;1.85;;
20639;SDS011;10479;53.524;9.846;2024-01-15T03:36:15;13.25;;;2.63;;
20639;SDS011;10479;53.524;9.846;2024-01-15T03:38:40;17.73;;;1.75;;
20639;SDS011;10479;53.524;9.846;2024-01-15T03:41:06;15.32;;;1.40;;
20639;SDS011;10479;53.524;9.846;2024-01-15T03:43:32;26.83;;;3.65;;
20639;SDS011;10479;53.524;9.846;2024-01-15T03:45:58;19.98;;;2.45;;
20639;SDS011;10479;53.524;9.846;2024-01-15T03:48:23;17.05;;;1.58;;
20639;SDS011;10479;53.524;9.846;2024-01-15T03:50:49;16.27;;;1.80;;
20639;SDS011;10479;53.524;9.846;2024-01-15T03:53:14;20.58;;;2.38;;
20639;SDS011;10479;53.524;9.846;2024-01-15T03:55:39;18.10;;;1.88;;
20639;SDS011;10479;53.524;9.846;2024-01-15T03:58:05;18.17;;;2.67;;
20639;SDS011;10479;53.524;9.846;2024-01-15T04:00:30;25.10;;;2.17;;
20639;SDS011;10479;53.524;9.846;2024-01-15T04:02:56;19.67;;;2.83;;
20639;SDS011;10479;53.524;9.846;2024-01-15T04:05:21;28.02;;;1.75;;
20639;SDS011;10479;53.524;9.846;2024-01-15T04:07:46;22.80;;;2.22;;
20639;SDS011;10479;53.524;9.846;2024-01-15T04:10:12;23.58;;;2.22;;
20639;SDS011;10479;53.524;9.846;2024-01-15T04:12:37;17.50;;;1.98;;
20639;SDS011;10479;53.524;9.846;2024-01-15T04:15:03;29.13;;;3.05;;
20639;SDS011;10479;53.524;9.846;2024-01-15T04:17:29;13.02;;;1.50;;
20639;SDS011;10479;53.524;9.846;2024-01-15T04:19:54;28.13;;;2.35;;
20639;SDS011;10479;53.524;9.846;2024-01-15T04:22:20;24.70;;;2.05;;
20639;SDS011;10479;53.524;9.846;2024-01-15T04:24:45;13.45;;;1.90;;
20639;SDS011;10479;53.524;9.846;2024-01-15T04:27:11;27.20;;;2.55;;
20639;SDS011;10479;53.524;9.846;2024-01-15T04:29:39;20.45;;;1.92;;
20639;SDS011;10479;53.524;9.846;2024-01-15T04:32:05;26.08;;;2.25;;
20639;SDS011;10479;53.524;9.846;2024-01-15T04:34:31;17.63;;;1.88;;
20639;SDS011;10479;53.524;9.846;2024-01-15T04:36:56;26.20;;;1.85;;
20639;SDS011;10479;53.524;9.846;2024-01-15T04:39:22;27.33;;;1.95;;
20639;SDS011;10479;53.524;9.846;2024-01-15T04:41:48;11.85;;;1.60;;
20639;SDS011;10479;53.524;9.846;2024-01-15T04:44:13;18.33;;;2.78;;
20639;SDS011;10479;53.524;9.846;2024-01-15T04:46:39;16.88;;;2.22;;
20639;SDS011;10479;53.524;9.846;2024-01-15T04:49:04;23.85;;;3.78;;
20639;SDS011;10479;53.524;9.846;2024-01-15T04:51:30;14.77;;;1.92;;
20639;SDS011;10479;53.524;9.846;2024-01-15T04:53:55;17.42;;;2.20;;
20639;SDS011;10479;53.524;9.846;2024-01-15T04:56:20;30.70;;;2.25;;
20639;SDS011;10479;53.524;9.846;2024-01-15T04:58:46;18.42;;;1.60;;
20639;SDS011;10479;53.524;9.846;2024-01-15T05:01:11;21.90;;;1.80;;
20639;SDS011;10479;53.524;9.846;2024-01-15T05:03:37;18.55;;;2.20;;
20639;SDS011;10479;53.524;9.846;2024-01-15T05:06:03;23.98;;;2.08;;
20639;SDS011;10479;53.524;9.846;2024-01-15T05:08:28;16.83;;;2.22;;
20639;SDS011;10479;53.524;9.846;2024-01-15T05:10:54;28.45;;;3.03;;
20639;SDS011;10479;53.524;9.846;2024-01-15T05:13:19;21.20;;;2.13;;
20639;SDS011;10479;53.524;9.846;2024-01-15T05:15:44;21.42;;;2.00;;
20639;SDS011;10479;53.524;9.846;2024-01-15T05:18:10;16.75;;;2.33;;
20639;SDS011;10479;53.524;9.846;2024-01-15T05:20:35;17.83;;;2.15;;
20639;SDS011;10479;53.524;9.846;2024-01-15T05:23:01;35.30;;;3.00;;
20639;SDS011;10479;53.524;9.846;2024-01-15T05:25:26;35.90;;;3.05;;
20639;SDS011;10479;53.524;9.846;2024-01-15T05:27:52;21.10;;;1.77;;
20639;SDS011;10479;53.524;9.846;2024-01-15T05:30:17;24.50;;;2.92;;
20639;SDS011;10479;53.524;9.846;2024-01-15T05:32:43;13.68;;;2.25;;
20639;SDS011;10479;53.524;9.846;2024-01-15T05:35:08;20.40;;;1.98;;
20639;SDS011;10479;53.524;9.846;2024-01-15T05:37:34;22.98;;;2.83;;
20639;SDS011;10479;53.524;9.846;2024-01-15T05:39:59;21.20;;;1.83;;
20639;SDS011;10479;53.524;9.846;2024-01-15T05:42:24;14.88;;;2.00;;
20639;SDS011;10479;53.524;9.846;2024-01-15T05:44:50;27.58;;;2.35;;
20639;SDS011;10479;53.524;9.846;2024-01-15T05:47:15;15.65;;;1.60;;
20639;SDS011;10479;53.524;9.846;2024-01-15T05:49:41;20.20;;;2.20;;
20639;SDS011;10479;53.524;9.846;2024-01-15T05:52:06;17.95;;;2.40;;
20639;SDS011;10479;53.524;9.846;2024-01-15T05:54:32;17.80;;;1.85;;
20639;SDS011;10479;53.524;9.846;2024-01-15T05:56:57;20.55;;;1.92;;
20639;SDS011;10479;53.524;9.846;2024-01-15T05:59:22;26.27;;;3.30;;
20639;SDS011;10479;53.524;9.846;2024-01-15T06:01:48;16.75;;;1.90;;
20639;SDS011;10479;53.524;9.846;2024-01-15T06:04:13;20.13;;;1.98;;
20639;SDS011;10479;53.524;9.846;2024-01-15T06:06:39;20.05;;;2.15;;
20639;SDS011;10479;53.524;9.846;2024-01-15T06:09:04;18.83;;;2.33;;
20639;SDS011;10479;53.524;9.846;2024-01-15T06:11:32;12.60;;;1.77;;
20639;SDS011;10479;53.524;9.846;2024-01-15T06:13:58;12.63;;;2.00;;
20639;SDS011;10479;53.524;9.846;2024-01-15T06:16:25;29.08;;;3.47;;
20639;SDS011;10479;53.524;9.846;2024-01-15T06:18:51;17.77;;;1.67;;
20639;SDS011;10479;53.524;9.846;2024-01-15T06:21:16;19.85;;;2.05;;
20639;SDS011;10479;53.524;9.846;2024-01-15T06:23:42;16.02;;;2.30;;
20639;SDS011;10479;53.524;9.846;2024-01-15T06:26:08;21.02;;;2.90;;
20639;SDS011;10479;53.524;9.846;2024-01-15T06:28:33;11.60;;;1.73;;
20639;SDS011;10479;53.524;9.846;2024-01-15T06:30:59;19.77;;;2.28;;
20639;SDS011;10479;53.524;9.846;2024-01-15T06:33:24;17.20;;;2.00;;
20639;SDS011;10479;53.524;9.846;2024-01-15T06:35:50;19.85;;;2.60;;
20639;SDS011;10479;53.524;9.846;2024-01-15T06:38:16;22.15;;;2.72;;
20639;SDS011;10479;53.524;9.846;2024-01-15T06:40:41;19.08;;;2.63;;
20639;SDS011;10479;53.524;9.846;2024-01-15T06:43:13;18.20;;;1.95;;
20639;SDS011;10479;53.524;9.846;2024-01-15T06:45:41;16.00;;;1.67;;
20639;SDS011;10479;53.524;9.846;2024-01-15T06:48:07;20.38;;;2.67;;
20639;SDS011;10479;53.524;9.846;2024-01-15T06:50:35;21.92;;;2.33;;
20639;SDS011;10479;53.524;9.846;2024-01-15T06:53:00;25.63;;;2.25;;
20639;SDS011;10479;53.524;9.846;2024-01-15T06:55:26;17.13;;;2.47;;
20639;SDS011;10479;53.524;9.846;2024-01-15T06:57:51;19.13;;;1.98;;
20639;SDS011;10479;53.524;9.846;2024-01-15T07:00:17;12.93;;;1.08;;
20639;SDS011;10479;53.524;9.846;2024-01-15T07:02:44;14.18;;;1.40;;
20639;SDS011;10479;53.524;9.846;2024-01-15T07:05:10;17.77;;;1.50;;
20639;SDS011;10479;53.524;9.846;2024-01-15T07:07:36;16.60;;;1.70;;
20639;SDS011;10479;53.524;9.846;2024-01-15T07:10:01;18.63;;;1.60;;
20639;SDS011;10479;53.524;9.846;2024-01-15T07:12:28;14.27;;;1.27;;
20639;SDS011;10479;53.524;9.846;2024-01-15T07:14:54;13.82;;;1.40;;
20639;SDS011;10479;53.524;9.846;2024-01-15T07:17:20;12.35;;;1.35;;
20639;SDS011;10479;53.524;9.846;2024-01-15T07:19:46;18.67;;;1.95;;
20639;SDS011;10479;53.524;9.846;2024-01-15T07:22:11;11.25;;;1.17;;
20639;SDS011;10479;53.524;9.846;2024-01-15T07:24:37;10.60;;;1.92;;
20639;SDS011;10479;53.524;9.846;2024-01-15T07:27:02;12.85;;;1.33;;
20639;SDS011;10479;53.524;9.846;2024-01-15T07:29:29;15.77;;;1.25;;
20639;SDS011;10479;53.524;9.846;2024-01-15T07:31:55;12.13;;;1.02;;
20639;SDS011;10479;53.524;9.846;2024-01-15T07:34:21;10.98;;;1.40;;
20639;SDS011;10479;53.524;9.846;2024-01-15T07:36:47;9.88;;;2.17;;
20639;SDS011;10479;53.524;9.846;2024-01-15T07:39:12;10.35;;;1.83;;
20639;SDS011;10479;53.524;9.846;2024-01-15T07:41:38;11.55;;;1.02;;
20639;SDS011;10479;53.524;9.846;2024-01-15T07:44:04;11.70;;;1.33;;
20639;SDS011;10479;53.524;9.846;2024-01-15T07:46:30;10.05;;;1.65;;
20639;SDS011;10479;53.524;9.846;2024-01-15T07:48:55;15.95;;;1.98;;
20639;SDS011;10479;53.524;9.846;2024-01-15T07:51:23;13.35;;;1.25;;
20639;SDS011;10479;53.524;9.846;2024-01-15T07:53:49;12.52;;;1.27;;
20639;SDS011;10479;53.524;9.846;2024-01-15T07:56:14;10.88;;;1.00;;
20639;SDS011;10479;53.524;9.846;2024-01-15T07:58:41;16.50;;;1.90;;
20639;SDS011;10479;53.524;9.846;2024-01-15T08:01:06;17.30;;;1.77;;
20639;SDS011;10479;53.524;9.846;2024-01-15T08:03:32;11.15;;;2.05;;
20639;SDS011;10479;53.524;9.846;2024-01-15T08:05:57;13.55;;;1.38;;
20639;SDS011;10479;53.524;9.846;2024-01-15T08:08:24;10.63;;;1.02;;
20639;SDS011;10479;53.524;9.846;2024-01-15T08:10:51;12.32;;;1.73;;
20639;SDS011;10479;53.524;9.846;2024-01-15T08:13:17;15.07;;;1.50;;
20639;SDS011;10479;53.524;9.846;2024-01-15T08:15:42;10.10;;;1.00;;
20639;SDS011;10479;53.524;9.846;2024-01-15T08:18:08;12.85;;;1.27;;
20639;SDS011;10479;53.524;9.846;2024-01-15T08:20:34;12.15;;;1.00;;
20639;SDS011;10479;53.524;9.846;2024-01-15T08:22:59;14.52;;;1.33;;
20639;SDS011;10479;53.524;9.846;2024-01-15T08:25:25;16.35;;;1.48;;
20639;SDS011;10479;53.524;9.846;2024-01-15T08:27:51;14.70;;;1.80;;
20639;SDS011;10479;53.524;9.846;2024-01-15T08:30:17;13.13;;;1.35;;
20639;SDS011;10479;53.524;9.846;2024-01-15T08:32:44;11.57;;;1.05;;
20639;SDS011;10479;53.524;9.846;2024-01-15T08:35:10;10.23;;;1.38;;
20639;SDS011;10479;53.524;9.846;2024-01-15T08:37:36;12.57;;;1.05;;
20639;SDS011;10479;53.524;9.846;2024-01-15T08:40:02;8.98;;;1.30;;
20639;SDS011;10479;53.524;9.846;2024-01-15T08:42:29;9.50;;;1.30;;
20639;SDS011;10479;53.524;9.846;2024-01-15T08:44:54;11.85;;;1.48;;
20639;SDS011;10479;53.524;9.846;2024-01-15T08:47:20;10.77;;;1.25;;
20639;SDS011;10479;53.524;9.846;2024-01-15T08:49:45;11.35;;;2.00;;
20639;SDS011;10479;53.524;9.846;2024-01-15T08:52:11;21.17;;;2.25;;
20639;SDS011;10479;53.524;9.846;2024-01-15T08:54:36;11.32;;;1.83;;
20639;SDS011;10479;53.524;9.846;2024-01-15T08:57:02;12.60;;;1.70;;
20639;SDS011;10479;53.524;9.846;2024-01-15T08:59:28;13.27;;;1.80;;
20639;SDS011;10479;53.524;9.846;2024-01-15T09:01:53;12.82;;;1.90;;
20639;SDS011;10479;53.524;9.846;2024-01-15T09:04:19;13.23;;;1.90;;
20639;SDS011;10479;53.524;9.846;2024-01-15T09:06:45;9.40;;;1.50;;
20639;SDS011;10479;53.524;9.846;2024-01-15T09:09:12;9.35;;;1.52;;
20639;SDS011;10479;53.524;9.846;2024-01-15T09:11:38;8.02;;;1.60;;
20639;SDS011;10479;53.524;9.846;2024-01-15T09:14:03;13.52;;;1.52;;
20639;SDS011;10479;53.524;9.846;2024-01-15T09:16:29;13.45;;;1.50;;
20639;SDS011;10479;53.524;9.846;2024-01-15T09:18:54;8.70;;;1.48;;
20639;SDS011;10479;53.524;9.846;2024-01-15T09:21:22;10.50;;;1.50;;
20639;SDS011;10479;53.524;9.846;2024-01-15T09:23:49;11.57;;;1.80;;
20639;SDS011;10479;53.524;9.846;2024-01-15T09:26:15;7.63;;;1.45;;
20639;SDS011;10479;53.524;9.846;2024-01-15T09:28:40;11.60;;;1.70;;
20639;SDS011;10479;53.524;9.846;2024-01-15T09:31:06;9.65;;;1.80;;
20639;SDS011;10479;53.524;9.846;2024-01-15T09:33:31;11.43;;;1.65;;
20639;SDS011;10479;53.524;9.846;2024-01-15T09:35:56;10.13;;;1.52;;
20639;SDS011;10479;53.524;9.846;2024-01-15T09:38:22;14.18;;;2.50;;
20639;SDS011;10479;53.524;9.846;2024-01-15T09:40:49;16.98;;;1.55;;
20639;SDS011;10479;53.524;9.846;2024-01-15T09:43:14;10.68;;;1.60;;
20639;SDS011;10479;53.524;9.846;2024-01-15T09:45:41;13.23;;;1.60;;
20639;SDS011;10479;53.524;9.846;2024-01-15T09:48:07;8.25;;;1.67;;
20639;SDS011;10479;53.524;9.846;2024-01-15T09:50:33;6.70;;;1.05;;
20639;SDS011;10479;53.524;9.846;2024-01-15T09:52:58;5.68;;;1.13;;
20639;SDS011;10479;53.524;9.846;2024-01-15T09:55:24;16.15;;;1.85;;
20639;SDS011;10479;53.524;9.846;2024-01-15T09:57:50;9.73;;;0.93;;
20639;SDS011;10479;53.524;9.846;2024-01-15T10:00:18;10.13;;;1.40;;
20639;SDS011;10479;53.524;9.846;2024-01-15T10:02:44;6.25;;;0.90;;
20639;SDS011;10479;53.524;9.846;2024-01-15T10:05:11;4.15;;;0.95;;
20639;SDS011;10479;53.524;9.846;2024-01-15T10:07:37;9.80;;;1.10;;
20639;SDS011;10479;53.524;9.846;2024-01-15T10:10:03;8.20;;;1.55;;
20639;SDS011;10479;53.524;9.846;2024-01-15T10:12:29;10.45;;;1.55;;
20639;SDS011;10479;53.524;9.846;2024-01-15T10:14:55;7.55;;;1.30;;
20639;SDS011;10479;53.524;9.846;2024-01-15T10:17:21;14.27;;;1.17;;
20639;SDS011;10479;53.524;9.846;2024-01-15T10:19:47;8.32;;;1.00;;
20639;SDS011;10479;53.524;9.846;2024-01-15T10:22:13;3.75;;;0.90;;
20639;SDS011;10479;53.524;9.846;2024-01-15T10:24:40;5.82;;;1.02;;
20639;SDS011;10479;53.524;9.846;2024-01-15T10:27:06;4.53;;;0.88;;
20639;SDS011;10479;53.524;9.846;2024-01-15T10:29:35;7.45;;;1.00;;
20639;SDS011;10479;53.524;9.846;2024-01-15T10:32:01;5.15;;;1.00;;
20639;SDS011;10479;53.524;9.846;2024-01-15T10:34:39;9.55;;;1.70;;
20639;SDS011;10479;53.524;9.846;2024-01-15T10:37:08;5.53;;;0.95;;
20639;SDS011;10479;53.524;9.846;2024-01-15T10:39:34;3.75;;;0.90;;
20639;SDS011;10479;53.524;9.846;2024-01-15T10:42:01;9.68;;;0.90;;
20639;SDS011;10479;53.524;9.846;2024-01-15T10:44:26;6.05;;;0.93;;
20639;SDS011;10479;53.524;9.846;2024-01-15T10:46:52;4.95;;;0.63;;
20639;SDS011;10479;53.524;9.846;2024-01-15T10:49:18;5.47;;;0.93;;
20639;SDS011;10479;53.524;9.846;2024-01-15T10:51:45;7.85;;;1.48;;
20639;SDS011;10479;53.524;9.846;2024-01-15T10:54:11;9.43;;;1.10;;
20639;SDS011;10479;53.524;9.846;2024-01-15T10:56:37;8.23;;;1.48;;
20639;SDS011;10479;53.524;9.846;2024-01-15T10:59:04;6.75;;;0.60;;
20639;SDS011;10479;53.524;9.846;2024-01-15T11:01:30;4.10;;;0.70;;
20639;SDS011;10479;53.524;9.846;2024-01-15T11:03:56;9.00;;;0.73;;
20639;SDS011;10479;53.524;9.846;2024-01-15T11:06:24;7.38;;;0.70;;
20639;SDS011;10479;53.524;9.846;2024-01-15T11:08:54;5.60;;;0.90;;
20639;SDS011;10479;53.524;9.846;2024-01-15T11:11:23;7.50;;;0.88;;
20639;SDS011;10479;53.524;9.846;2024-01-15T11:13:48;8.27;;;0.90;;
20639;SDS011;10479;53.524;9.846;2024-01-15T11:16:16;7.43;;;1.13;;
20639;SDS011;10479;53.524;9.846;2024-01-15T11:21:23;7.55;;;1.20;;
20639;SDS011;10479;53.524;9.846;2024-01-15T11:23:52;9.00;;;1.52;;
20639;SDS011;10479;53.524;9.846;2024-01-15T11:26:37;4.55;;;0.82;;
20639;SDS011;10479;53.524;9.846;2024-01-15T11:29:04;6.00;;;1.42;;
20639;SDS011;10479;53.524;9.846;2024-01-15T11:34:08;4.40;;;1.05;;
20639;SDS011;10479;53.524;9.846;2024-01-15T11:42:00;5.55;;;1.08;;
20639;SDS011;10479;53.524;9.846;2024-01-15T11:44:27;3.33;;;1.00;;
20639;SDS011;10479;53.524;9.846;2024-01-15T11:46:59;3.65;;;1.10;;
20639;SDS011;10479;53.524;9.846;2024-01-15T11:50:10;5.07;;;1.13;;
20639;SDS011;10479;53.524;9.846;2024-01-15T11:52:34;8.00;;;1.50;;
20639;SDS011;10479;53.524;9.846;2024-01-15T11:57:49;3.70;;;1.33;;
20639;SDS011;10479;53.524;9.846;2024-01-15T12:00:16;4.22;;;1.00;;
20639;SDS011;10479;53.524;9.846;2024-01-15T12:02:42;4.60;;;1.15;;
20639;SDS011;10479;53.524;9.846;2024-01-15T12:05:09;9.93;;;1.55;;
20639;SDS011;10479;53.524;9.846;2024-01-15T12:07:37;6.20;;;1.10;;
20639;SDS011;10479;53.524;9.846;2024-01-15T12:10:09;9.90;;;1.70;;
20639;SDS011;10479;53.524;9.846;2024-01-15T12:15:13;4.10;;;0.90;;
20639;SDS011;10479;53.524;9.846;2024-01-15T12:17:39;2.63;;;0.85;;
20639;SDS011;10479;53.524;9.846;2024-01-15T12:20:05;2.70;;;0.85;;
20639;SDS011;10479;53.524;9.846;2024-01-15T12:22:31;5.80;;;1.50;;
20639;SDS011;10479;53.524;9.846;2024-01-15T12:24:56;4.38;;;0.98;;
20639;SDS011;10479;53.524;9.846;2024-01-15T12:27:22;4.45;;;0.95;;
20639;SDS011;10479;53.524;9.846;2024-01-15T12:29:48;3.92;;;0.80;;
20639;SDS011;10479;53.524;9.846;2024-01-15T12:32:13;1.40;;;0.60;;
20639;SDS011;10479;53.524;9.846;2024-01-15T12:34:39;3.38;;;0.60;;
20639;SDS011;10479;53.524;9.846;2024-01-15T12:37:04;4.25;;;0.80;;
20639;SDS011;10479;53.524;9.846;2024-01-15T12:39:33;2.33;;;0.70;;
20639;SDS011;10479;53.524;9.846;2024-01-15T12:42:00;2.42;;;0.70;;
20639;SDS011;10479;53.524;9.846;2024-01-15T12:44:26;2.33;;;0.73;;
20639;SDS011;10479;53.524;9.846;2024-01-15T12:46:52;3.35;;;0.70;;
20639;SDS011;10479;53.524;9.846;2024-01-15T12:49:17;2.85;;;0.85;;
20639;SDS011;10479;53.524;9.846;2024-01-15T12:51:43;2.90;;;0.93;;
20639;SDS011;10479;53.524;9.846;2024-01-15T12:54:08;2.78;;;0.80;;
20639;SDS011;10479;53.524;9.846;2024-01-15T12:56:33;4.85;;;1.20;;
20639;SDS011;10479;53.524;9.846;2024-01-15T12:58:59;5.00;;;0.90;;
20639;SDS011;10479;53.524;9.846;2024-01-15T13:01:24;3.00;;;1.10;;
20639;SDS011;10479;53.524;9.846;2024-01-15T13:03:50;3.22;;;0.98;;
20639;SDS011;10479;53.524;9.846;2024-01-15T13:06:15;5.90;;;0.90;;
20639;SDS011;10479;53.524;9.846;2024-01-15T13:08:41;5.68;;;0.98;;
20639;SDS011;10479;53.524;9.846;2024-01-15T13:11:07;2.63;;;0.80;;
20639;SDS011;10479;53.524;9.846;2024-01-15T13:13:32;5.70;;;0.93;;
20639;SDS011;10479;53.524;9.846;2024-01-15T13:15:59;2.70;;;0.90;;
20639;SDS011;10479;53.524;9.846;2024-01-15T13:18:25;4.03;;;0.60;;
20639;SDS011;10479;53.524;9.846;2024-01-15T13:20:50;3.00;;;0.82;;
20639;SDS011;10479;53.524;9.846;2024-01-15T13:23:16;3.47;;;0.90;;
20639;SDS011;10479;53.524;9.846;2024-01-15T13:25:41;2.20;;;0.80;;
20639;SDS011;10479;53.524;9.846;2024-01-15T13:28:07;2.08;;;0.80;;
20639;SDS011;10479;53.524;9.846;2024-01-15T13:30:35;1.92;;;0.60;;
20639;SDS011;10479;53.524;9.846;2024-01-15T13:33:02;5.78;;;0.82;;
20639;SDS011;10479;53.524;9.846;2024-01-15T13:35:29;2.95;;;0.82;;
20639;SDS011;10479;53.524;9.846;2024-01-15T13:37:55;2.60;;;0.80;;
20639;SDS011;10479;53.524;9.846;2024-01-15T13:40:20;2.78;;;0.70;;
20639;SDS011;10479;53.524;9.846;2024-01-15T13:42:47;5.97;;;0.88;;
20639;SDS011;10479;53.524;9.846;2024-01-15T13:45:12;3.50;;;0.82;;
20639;SDS011;10479;53.524;9.846;2024-01-15T13:47:40;2.63;;;0.75;;
20639;SDS011;10479;53.524;9.846;2024-01-15T13:50:07;3.85;;;0.70;;
20639;SDS011;10479;53.524;9.846;2024-01-15T13:52:33;3.95;;;0.60;;
20639;SDS011;10479;53.524;9.846;2024-01-15T13:54:58;2.88;;;0.73;;
20639;SDS011;10479;53.524;9.846;2024-01-15T13:57:23;4.93;;;0.90;;
20639;SDS011;10479;53.524;9.846;2024-01-15T13:59:49;6.18;;;0.70;;
20639;SDS011;10479;53.524;9.846;2024-01-15T14:02:15;4.15;;;1.02;;
20639;SDS011;10479;53.524;9.846;2024-01-15T14:04:40;6.20;;;0.98;;
20639;SDS011;10479;53.524;9.846;2024-01-15T14:07:06;2.28;;;0.70;;
20639;SDS011;10479;53.524;9.846;2024-01-15T14:09:32;2.53;;;0.80;;
20639;SDS011;10479;53.524;9.846;2024-01-15T14:11:57;3.95;;;1.10;;
20639;SDS011;10479;53.524;9.846;2024-01-15T14:14:23;5.22;;;1.00;;
20639;SDS011;10479;53.524;9.846;2024-01-15T14:16:49;3.35;;;1.00;;
20639;SDS011;10479;53.524;9.846;2024-01-15T14:19:14;6.78;;;1.38;;
20639;SDS011;10479;53.524;9.846;2024-01-15T14:21:40;5.95;;;1.38;;
20639;SDS011;10479;53.524;9.846;2024-01-15T14:24:06;4.40;;;1.50;;
20639;SDS011;10479;53.524;9.846;2024-01-15T14:26:31;4.68;;;1.50;;
20639;SDS011;10479;53.524;9.846;2024-01-15T14:28:57;4.18;;;1.70;;
20639;SDS011;10479;53.524;9.846;2024-01-15T14:31:23;7.18;;;1.77;;
20639;SDS011;10479;53.524;9.846;2024-01-15T14:33:51;4.82;;;1.85;;
20639;SDS011;10479;53.524;9.846;2024-01-15T14:36:17;5.30;;;2.00;;
20639;SDS011;10479;53.524;9.846;2024-01-15T14:38:42;6.57;;;2.40;;
20639;SDS011;10479;53.524;9.846;2024-01-15T14:41:08;6.72;;;2.40;;
20639;SDS011;10479;53.524;9.846;2024-01-15T14:43:33;7.07;;;2.78;;
20639;SDS011;10479;53.524;9.846;2024-01-15T14:45:59;5.63;;;2.60;;
20639;SDS011;10479;53.524;9.846;2024-01-15T14:48:25;9.23;;;3.08;;
20639;SDS011;10479;53.524;9.846;2024-01-15T14:50:50;11.10;;;3.55;;